»·PEaware :: N7375Q P20-KRAL

N7375Q :: P20-KRAL

FLIGHT INFORMATION

Flight Status: Arrived
Operator: Privately registered:
United States
More flights under this callsign
Pilot: Ion I. (24133)
Aircraft: SOCATA TBM-900
(TBM9)
More flights by this aircraft type
Origin: P20 Avi Suquilla
United States
Destination: KRAL Riverside Mun
United States
More flights between these airports :: More routes between these airports
Route: PKE JANAD PSP SETER5
File this flight plan on PilotEdge
Remarks:
Altitude:
(Current/Filed)
26,000ft
Speed:
(Current/Filed)
250kts
Departed: 27-Jul-20 10:54 AM
Arrived: 27-Jul-20 11:38 AM
Distance/Time
Traveled:
158nm/0:44
Distance/Time
To Go:
Arrived

Flight Plot

Page will automatically refresh every two minutes.

Flight plan parsing failed; only flown route is shown


Map Options




Map Legend


Flown Route
Filed Route
Departure Airport
Arrival Airport
Navaid (VOR, NDB)
Fix

Horizontal Profiles

Position Reports

Time Latitude Longitude Heading Altitude Ground
Speed
27-Jul-20 10:39 34.152511 -114.272085 117 446ft 0kts
27-Jul-20 10:40 34.152511 -114.272085 117 446ft 0kts
27-Jul-20 10:41 34.152511 -114.272085 117 446ft 0kts
27-Jul-20 10:42 34.152511 -114.272085 117 446ft 0kts
27-Jul-20 10:43 34.152511 -114.272085 117 446ft 0kts
27-Jul-20 10:44 34.152511 -114.272085 117 446ft 0kts
27-Jul-20 10:45 34.152511 -114.272085 117 446ft 0kts
27-Jul-20 10:46 34.152511 -114.272085 117 446ft 0kts
27-Jul-20 10:47 34.152713 -114.271717 31 446ft 3kts
27-Jul-20 10:48 34.152936 -114.270748 26 448ft 7kts
27-Jul-20 10:49 34.155923 -114.268953 26 448ft 13kts
27-Jul-20 10:50 34.156203 -114.267144 116 450ft 7kts
27-Jul-20 10:51 34.157047 -114.264937 27 449ft 13kts
27-Jul-20 10:52 34.157439 -114.263995 113 451ft 6kts
27-Jul-20 10:53 34.143790 -114.271750 210 725ft 115kts
27-Jul-20 10:54 34.139633 -114.306945 292 2584ft 129kts
27-Jul-20 10:55 34.139007 -114.351552 262 4382ft 147kts
27-Jul-20 10:57 34.132849 -114.407879 260 6283ft 179kts
27-Jul-20 10:58 34.126488 -114.464451 260 8812ft 160kts
27-Jul-20 10:59 34.121198 -114.512222 257 11110ft 143kts
27-Jul-20 11:00 34.115505 -114.562506 256 13216ft 161kts
27-Jul-20 11:01 34.109037 -114.619493 257 15304ft 185kts
27-Jul-20 11:02 34.101824 -114.682978 256 17336ft 195kts
27-Jul-20 11:03 34.093736 -114.747874 256 19324ft 199kts
27-Jul-20 11:04 34.085333 -114.814762 256 21130ft 203kts
27-Jul-20 11:05 34.076766 -114.882611 256 22858ft 209kts
27-Jul-20 11:06 34.066723 -114.961302 256 22887ft 258kts
27-Jul-20 11:07 34.056354 -115.043105 256 24460ft 233kts
27-Jul-20 11:08 34.046736 -115.117970 256 25904ft 236kts
27-Jul-20 11:09 34.035727 -115.203148 257 25914ft 272kts
27-Jul-20 11:10 34.023716 -115.295827 257 25907ft 283kts
27-Jul-20 11:11 34.011438 -115.390025 257 25904ft 286kts
27-Jul-20 11:12 33.999002 -115.484743 258 25903ft 286kts
27-Jul-20 11:13 33.986501 -115.579515 258 25903ft 286kts
27-Jul-20 11:13 33.976474 -115.654544 258 25673ft 293kts
27-Jul-20 11:15 33.963174 -115.753435 258 24404ft 309kts
27-Jul-20 11:16 33.949233 -115.856453 258 23155ft 313kts
27-Jul-20 11:16 33.937470 -115.942939 258 22138ft 311kts
27-Jul-20 11:17 33.923463 -116.045238 258 20935ft 308kts
27-Jul-20 11:18 33.909512 -116.146503 258 19757ft 304kts
27-Jul-20 11:19 33.895627 -116.246642 258 18594ft 300kts
27-Jul-20 11:20 33.881851 -116.345435 258 17471ft 299kts
27-Jul-20 11:21 33.870627 -116.444707 271 16325ft 301kts
27-Jul-20 11:22 33.875523 -116.544682 270 15240ft 297kts
27-Jul-20 11:23 33.880213 -116.644360 269 14177ft 298kts
27-Jul-20 11:24 33.884222 -116.730961 269 13201ft 298kts
27-Jul-20 11:25 33.888600 -116.826737 268 12996ft 268kts
27-Jul-20 11:26 33.891804 -116.915211 268 10784ft 272kts
27-Jul-20 11:27 33.894656 -116.999923 270 8560ft 227kts
27-Jul-20 11:28 33.896877 -117.067499 270 8127ft 209kts
27-Jul-20 11:29 33.899173 -117.139575 270 6095ft 210kts
27-Jul-20 11:30 33.905779 -117.204341 282 4805ft 193kts
27-Jul-20 11:31 33.915736 -117.258919 286 3676ft 138kts
27-Jul-20 11:32 33.924553 -117.301106 282 3122ft 114kts
27-Jul-20 11:33 33.931331 -117.336188 284 2462ft 95kts
27-Jul-20 11:34 33.937097 -117.365041 283 1910ft 81kts
27-Jul-20 11:35 33.942139 -117.391341 281 1535ft 80kts
27-Jul-20 11:36 33.947187 -117.417469 281 1106ft 79kts
27-Jul-20 11:37 33.951819 -117.441344 284 780ft 35kts
27-Jul-20 11:38 33.951448 -117.443730 193 780ft 2kts
27-Jul-20 11:39 33.950701 -117.442757 106 780ft 0kts
27-Jul-20 11:40 33.950701 -117.442757 106 780ft 0kts
27-Jul-20 11:41 33.950701 -117.442757 106 780ft 0kts
27-Jul-20 11:42 33.950701 -117.442757 106 780ft 0kts
27-Jul-20 11:43 33.950701 -117.442757 106 780ft 0kts

Navigation Log

Ident Type
Flight plan parsing failed, navigation log unavailable